createdAt,value
2022-08-31T00:00:13.063Z,18.70
2022-08-31T00:02:58.463Z,18.60
2022-08-31T00:05:25.370Z,18.60
2022-08-31T00:07:52.802Z,18.60
2022-08-31T00:10:32.807Z,18.50
2022-08-31T00:13:04.925Z,18.50
2022-08-31T00:15:35.182Z,18.50
2022-08-31T00:18:02.799Z,18.50
2022-08-31T00:20:33.784Z,18.50
2022-08-31T00:23:03.197Z,18.40
2022-08-31T00:25:30.337Z,18.40
2022-08-31T00:27:57.559Z,18.40
2022-08-31T00:30:24.990Z,18.40
2022-08-31T00:32:52.167Z,18.30
2022-08-31T00:35:19.197Z,18.30
2022-08-31T00:37:46.018Z,18.30
2022-08-31T00:40:12.968Z,18.30
2022-08-31T00:42:40.154Z,18.30
2022-08-31T00:45:08.160Z,18.20
2022-08-31T00:47:35.093Z,18.20
2022-08-31T00:50:04.304Z,18.20
2022-08-31T00:52:38.963Z,18.20
2022-08-31T00:55:20.327Z,18.10
2022-08-31T00:57:51.366Z,18.10
2022-08-31T01:00:22.449Z,18.10
2022-08-31T01:02:49.692Z,18.00
2022-08-31T01:05:17.948Z,18.00
2022-08-31T01:07:47.808Z,18.00
2022-08-31T01:10:17.319Z,18.00
2022-08-31T01:12:47.440Z,17.90
2022-08-31T01:15:17.758Z,17.90
2022-08-31T01:17:46.595Z,17.90
2022-08-31T01:20:24.757Z,17.90
2022-08-31T01:23:09.494Z,17.90
2022-08-31T01:25:38.391Z,17.80
2022-08-31T01:28:08.222Z,17.80
2022-08-31T01:30:36.182Z,17.80
2022-08-31T01:33:04.198Z,17.70
2022-08-31T01:35:31.306Z,17.70
2022-08-31T01:37:58.733Z,17.70
2022-08-31T01:40:34.868Z,17.70
2022-08-31T01:43:01.768Z,17.60
2022-08-31T01:45:29.053Z,17.60
2022-08-31T01:47:55.936Z,17.60
2022-08-31T01:50:22.779Z,17.60
2022-08-31T01:52:49.497Z,17.50
2022-08-31T01:55:16.426Z,17.50
2022-08-31T01:57:43.151Z,17.50
2022-08-31T02:00:10.560Z,17.50
2022-08-31T02:02:37.939Z,17.40
2022-08-31T02:05:07.384Z,17.40
2022-08-31T02:07:34.548Z,17.30
2022-08-31T02:10:01.301Z,17.30
2022-08-31T02:12:28.072Z,17.30
2022-08-31T02:14:55.037Z,17.30
2022-08-31T02:17:22.673Z,17.30
2022-08-31T02:19:50.136Z,17.20
2022-08-31T02:22:17.191Z,17.20
2022-08-31T02:24:44.246Z,17.20
2022-08-31T02:27:10.942Z,17.20
2022-08-31T02:29:39.657Z,17.10
2022-08-31T02:32:06.996Z,17.10
2022-08-31T02:34:34.041Z,17.10
2022-08-31T02:37:00.967Z,17.10
2022-08-31T02:39:27.980Z,17.10
2022-08-31T02:41:54.719Z,17.00
2022-08-31T02:44:21.491Z,17.00
2022-08-31T02:46:48.417Z,17.00
2022-08-31T02:49:15.321Z,17.00
2022-08-31T02:51:42.699Z,16.90
2022-08-31T02:54:10.829Z,17.00
2022-08-31T02:56:38.401Z,16.90
2022-08-31T02:59:05.930Z,16.90
2022-08-31T03:01:33.103Z,16.90
2022-08-31T03:04:00.903Z,16.80
2022-08-31T03:06:29.777Z,16.80
2022-08-31T03:08:56.705Z,16.80
2022-08-31T03:11:23.559Z,16.80
2022-08-31T03:13:50.374Z,16.70
2022-08-31T03:16:17.412Z,16.70
2022-08-31T03:18:44.332Z,16.70
2022-08-31T03:21:11.135Z,16.70
2022-08-31T03:23:38.133Z,16.60
2022-08-31T03:26:05.967Z,16.60
2022-08-31T03:28:34.387Z,16.60
2022-08-31T03:31:01.564Z,16.60
2022-08-31T03:33:28.322Z,16.60
2022-08-31T03:35:55.212Z,16.50
2022-08-31T03:38:22.060Z,16.50
2022-08-31T03:40:50.886Z,16.50
2022-08-31T03:43:18.371Z,16.40
2022-08-31T03:45:45.296Z,16.50
2022-08-31T03:48:13.195Z,16.40
2022-08-31T03:50:42.380Z,16.40
2022-08-31T03:53:09.938Z,16.40
2022-08-31T03:55:39.287Z,16.40
2022-08-31T03:58:08.476Z,16.30
2022-08-31T04:00:36.874Z,16.30
2022-08-31T04:03:04.182Z,16.30
2022-08-31T04:05:34.126Z,16.30
2022-08-31T04:08:01.118Z,16.20
2022-08-31T04:10:27.886Z,16.20
2022-08-31T04:12:54.712Z,16.20
2022-08-31T04:15:22.453Z,16.20
2022-08-31T04:17:49.279Z,16.10
2022-08-31T04:20:24.446Z,16.10
2022-08-31T04:22:56.474Z,16.10
2022-08-31T04:25:23.238Z,16.00
2022-08-31T04:27:50.422Z,16.00
2022-08-31T04:30:18.040Z,16.00
2022-08-31T04:32:44.992Z,16.00
2022-08-31T04:35:14.696Z,16.00
2022-08-31T04:37:46.867Z,16.00
2022-08-31T04:40:25.403Z,15.90
2022-08-31T04:42:52.936Z,15.90
2022-08-31T04:45:19.889Z,15.90
2022-08-31T04:47:46.753Z,15.90
2022-08-31T04:50:15.431Z,15.80
2022-08-31T04:52:43.527Z,15.80
2022-08-31T04:55:11.678Z,15.80
2022-08-31T04:57:47.137Z,15.70
2022-08-31T05:00:14.967Z,15.70
2022-08-31T05:02:50.025Z,15.70
2022-08-31T05:05:19.574Z,15.60
2022-08-31T05:07:46.442Z,15.60
2022-08-31T05:10:13.278Z,15.60
2022-08-31T05:12:39.995Z,15.60
2022-08-31T05:15:07.332Z,15.50
2022-08-31T05:17:34.205Z,15.60
2022-08-31T05:20:01.135Z,15.50
2022-08-31T05:22:30.061Z,15.50
2022-08-31T05:24:56.860Z,15.50
2022-08-31T05:27:23.687Z,15.50
2022-08-31T05:29:50.674Z,15.50
2022-08-31T05:32:17.435Z,15.50
2022-08-31T05:34:45.544Z,15.50
2022-08-31T05:37:15.645Z,15.50
2022-08-31T05:39:42.360Z,15.50
2022-08-31T05:42:09.222Z,15.50
2022-08-31T05:44:37.937Z,15.50
2022-08-31T05:47:09.576Z,15.50
2022-08-31T05:49:36.772Z,15.60
2022-08-31T05:52:05.633Z,15.60
2022-08-31T05:54:36.606Z,15.60
2022-08-31T05:57:05.259Z,15.60
2022-08-31T05:59:33.678Z,15.60
2022-08-31T06:02:04.082Z,15.70
2022-08-31T06:04:31.265Z,15.70
2022-08-31T06:06:58.297Z,15.70
2022-08-31T06:09:25.316Z,15.70
2022-08-31T06:11:54.388Z,15.80
2022-08-31T06:14:22.972Z,15.80
2022-08-31T06:16:50.982Z,15.80
2022-08-31T06:19:19.561Z,15.80
2022-08-31T06:21:50.265Z,15.90
2022-08-31T06:24:18.950Z,15.90
2022-08-31T06:26:56.915Z,15.90
2022-08-31T06:29:25.354Z,15.90
2022-08-31T06:31:52.388Z,15.90
2022-08-31T06:34:20.113Z,16.00
2022-08-31T06:36:48.244Z,16.00
2022-08-31T06:39:16.063Z,16.00
2022-08-31T06:41:42.849Z,16.10
2022-08-31T06:44:12.599Z,16.10
2022-08-31T06:46:40.415Z,16.10
2022-08-31T06:49:09.286Z,16.10
2022-08-31T06:51:43.234Z,16.20
2022-08-31T06:54:29.903Z,16.20
2022-08-31T06:56:58.619Z,16.30
2022-08-31T06:59:28.830Z,16.40
2022-08-31T07:01:57.098Z,16.50
2022-08-31T07:04:24.582Z,16.60
2022-08-31T07:06:53.900Z,16.70
2022-08-31T07:09:20.836Z,16.80
2022-08-31T07:11:50.311Z,16.90
2022-08-31T07:14:22.146Z,16.90
2022-08-31T07:16:50.296Z,17.00
2022-08-31T07:19:19.525Z,17.10
2022-08-31T07:21:49.253Z,17.20
2022-08-31T07:24:24.571Z,17.30
2022-08-31T07:26:58.338Z,17.40
2022-08-31T07:29:30.406Z,17.60
2022-08-31T07:32:00.477Z,18.10
2022-08-31T07:34:30.423Z,18.60
2022-08-31T07:37:18.776Z,19.70
2022-08-31T07:40:08.140Z,20.90
2022-08-31T07:42:39.156Z,22.00
2022-08-31T07:45:12.685Z,23.00
2022-08-31T07:47:45.375Z,23.80
2022-08-31T07:50:14.161Z,24.60
2022-08-31T07:52:48.568Z,25.10
2022-08-31T07:55:18.953Z,25.50
2022-08-31T07:57:46.355Z,26.00
2022-08-31T08:00:20.873Z,26.50
2022-08-31T08:02:52.743Z,26.90
2022-08-31T08:05:27.088Z,27.30
2022-08-31T08:07:57.885Z,27.50
2022-08-31T08:10:26.413Z,27.70
2022-08-31T08:13:04.832Z,27.80
2022-08-31T08:15:35.730Z,27.80
2022-08-31T08:18:04.310Z,27.70
2022-08-31T08:20:37.244Z,27.60
2022-08-31T08:23:15.151Z,27.40
2022-08-31T08:25:47.261Z,27.20
2022-08-31T08:31:06.666Z,26.90
2022-08-31T08:33:35.677Z,26.80
2022-08-31T08:36:07.784Z,26.80
2022-08-31T08:38:38.182Z,26.80
2022-08-31T08:41:16.065Z,26.80
2022-08-31T08:43:52.400Z,26.70
2022-08-31T08:46:37.667Z,26.70
2022-08-31T08:49:28.782Z,26.80
2022-08-31T08:52:03.751Z,26.90
2022-08-31T08:54:38.054Z,26.90
2022-08-31T08:57:14.755Z,27.00
2022-08-31T08:59:43.719Z,27.20
2022-08-31T09:02:19.156Z,27.20
2022-08-31T09:05:15.139Z,27.40
2022-08-31T09:08:11.564Z,27.50
2022-08-31T09:10:45.618Z,27.60
2022-08-31T09:13:21.782Z,27.70
2022-08-31T09:15:48.594Z,27.90
2022-08-31T09:18:40.686Z,28.00
2022-08-31T09:21:22.253Z,28.10
2022-08-31T09:23:55.988Z,28.30
2022-08-31T09:26:25.993Z,28.40
2022-08-31T09:28:52.965Z,28.50
2022-08-31T09:31:43.605Z,28.50
2022-08-31T09:34:31.301Z,28.50
2022-08-31T09:37:15.903Z,28.70
2022-08-31T09:39:49.224Z,28.80
2022-08-31T09:42:32.166Z,28.90
2022-08-31T09:45:07.155Z,29.00
2022-08-31T09:47:55.950Z,29.00
2022-08-31T09:50:29.233Z,29.20
2022-08-31T09:53:30.163Z,29.30
2022-08-31T09:56:24.449Z,29.30
2022-08-31T09:58:53.339Z,29.30
2022-08-31T10:01:25.048Z,29.40
2022-08-31T10:04:09.385Z,29.40
2022-08-31T10:06:55.360Z,29.60
2022-08-31T10:09:36.210Z,29.80
2022-08-31T10:12:11.105Z,30.00
2022-08-31T10:14:50.582Z,30.20
2022-08-31T10:18:04.114Z,30.40
2022-08-31T10:20:39.648Z,30.60
2022-08-31T10:23:20.828Z,30.70
2022-08-31T10:25:58.962Z,30.70
2022-08-31T10:28:43.730Z,30.70
2022-08-31T10:31:23.818Z,30.80
2022-08-31T10:34:14.248Z,30.90
2022-08-31T10:36:42.585Z,30.90
2022-08-31T10:39:32.513Z,30.80
2022-08-31T10:42:05.461Z,30.70
2022-08-31T10:44:39.620Z,30.70
2022-08-31T10:47:07.532Z,30.70
2022-08-31T10:49:41.102Z,30.60
2022-08-31T10:52:21.999Z,30.70
2022-08-31T10:55:23.606Z,30.70
2022-08-31T10:58:27.730Z,30.70
2022-08-31T11:01:23.644Z,30.90
2022-08-31T11:04:20.137Z,31.10
2022-08-31T11:07:28.111Z,31.20
2022-08-31T11:10:12.068Z,31.30
2022-08-31T11:12:49.445Z,31.50
2022-08-31T11:15:40.353Z,31.70
2022-08-31T11:18:25.191Z,31.90
2022-08-31T11:21:35.240Z,32.10
2022-08-31T11:24:37.117Z,32.20
2022-08-31T11:27:14.476Z,32.20
2022-08-31T11:29:56.574Z,32.20
2022-08-31T11:32:39.650Z,32.30
2022-08-31T11:35:10.482Z,32.50
2022-08-31T11:38:00.530Z,32.50
2022-08-31T11:40:42.209Z,32.50
2022-08-31T11:43:15.381Z,32.50
2022-08-31T11:45:43.258Z,32.60
2022-08-31T11:48:51.513Z,32.60
2022-08-31T11:51:40.971Z,32.70
2022-08-31T11:54:43.050Z,32.80
2022-08-31T11:57:15.507Z,32.80
2022-08-31T11:59:45.699Z,32.90
2022-08-31T12:02:22.864Z,33.00
2022-08-31T12:04:58.904Z,33.00
2022-08-31T12:07:41.239Z,32.90
2022-08-31T12:10:29.687Z,32.70
2022-08-31T12:13:09.087Z,32.70
2022-08-31T12:16:01.183Z,32.70
2022-08-31T12:18:38.478Z,32.70
2022-08-31T12:21:56.326Z,32.60
2022-08-31T12:24:49.153Z,32.70
2022-08-31T12:27:35.000Z,32.70
2022-08-31T12:30:22.505Z,32.90
2022-08-31T12:33:01.854Z,33.10
2022-08-31T12:35:32.057Z,33.20
2022-08-31T12:38:16.138Z,33.20
2022-08-31T12:40:50.416Z,33.20
2022-08-31T12:43:22.455Z,33.20
2022-08-31T12:46:01.760Z,33.40
2022-08-31T12:48:34.304Z,33.50
2022-08-31T12:51:31.634Z,33.60
2022-08-31T12:54:05.432Z,33.70
2022-08-31T12:56:35.216Z,33.80
2022-08-31T12:59:20.643Z,33.80
2022-08-31T13:01:49.850Z,33.80
2022-08-31T13:04:18.937Z,33.80
2022-08-31T13:06:48.480Z,33.80
2022-08-31T13:09:26.442Z,33.80
2022-08-31T13:11:56.449Z,33.80
2022-08-31T13:14:26.910Z,33.80
2022-08-31T13:17:17.578Z,33.80
2022-08-31T13:19:48.222Z,33.80
2022-08-31T13:22:24.514Z,33.80
2022-08-31T13:24:54.026Z,33.80
2022-08-31T13:27:23.099Z,33.80
2022-08-31T13:29:50.959Z,33.70
2022-08-31T13:32:34.345Z,33.70
2022-08-31T13:35:10.722Z,33.60
2022-08-31T13:38:07.877Z,33.60
2022-08-31T13:40:39.437Z,33.60
2022-08-31T13:43:09.515Z,33.60
2022-08-31T13:45:57.857Z,33.50
2022-08-31T13:48:53.465Z,33.50
2022-08-31T13:51:21.300Z,33.50
2022-08-31T13:54:06.866Z,33.50
2022-08-31T13:56:57.634Z,33.50
2022-08-31T13:59:30.478Z,33.50
2022-08-31T14:02:19.543Z,33.60
2022-08-31T14:05:05.322Z,33.60
2022-08-31T14:07:44.003Z,33.50
2022-08-31T14:10:19.828Z,33.50
2022-08-31T14:13:18.296Z,33.30
2022-08-31T14:15:52.348Z,33.20
2022-08-31T14:18:29.835Z,33.10
2022-08-31T14:21:26.941Z,33.10
2022-08-31T14:24:02.493Z,33.10
2022-08-31T14:26:37.132Z,33.20
2022-08-31T14:29:12.110Z,33.20
2022-08-31T14:31:41.647Z,33.10
2022-08-31T14:34:23.325Z,33.00
2022-08-31T14:36:55.850Z,32.90
2022-08-31T14:39:38.121Z,32.80
2022-08-31T14:42:17.115Z,32.70
2022-08-31T14:44:52.882Z,32.70
2022-08-31T14:47:24.187Z,32.60
2022-08-31T14:49:52.180Z,32.60
2022-08-31T14:52:18.940Z,32.70
2022-08-31T14:54:46.062Z,32.70
2022-08-31T14:57:17.969Z,32.70
2022-08-31T14:59:46.839Z,32.70
2022-08-31T15:02:21.194Z,32.70
2022-08-31T15:04:48.999Z,32.70
2022-08-31T15:07:18.576Z,32.50
2022-08-31T15:09:47.804Z,32.30
2022-08-31T15:12:17.116Z,32.10
2022-08-31T15:14:45.287Z,31.90
2022-08-31T15:17:18.904Z,31.70
2022-08-31T15:19:46.261Z,31.60
2022-08-31T15:22:15.850Z,31.60
2022-08-31T15:24:44.927Z,31.60
2022-08-31T15:27:16.181Z,31.50
2022-08-31T15:29:45.512Z,31.40
2022-08-31T15:32:16.737Z,31.30
2022-08-31T15:34:58.451Z,31.30
2022-08-31T15:37:31.900Z,31.20
2022-08-31T15:40:00.754Z,31.20
2022-08-31T15:42:29.505Z,31.00
2022-08-31T15:44:56.810Z,30.90
2022-08-31T15:47:51.655Z,30.80
2022-08-31T15:50:21.048Z,30.60
2022-08-31T15:52:50.941Z,30.50
2022-08-31T15:55:23.530Z,30.40
2022-08-31T15:57:54.050Z,30.30
2022-08-31T16:00:26.040Z,30.30
2022-08-31T16:02:57.575Z,30.10
2022-08-31T16:05:28.334Z,30.00
2022-08-31T16:07:57.359Z,29.80
2022-08-31T16:10:24.749Z,29.60
2022-08-31T16:12:52.077Z,29.40
2022-08-31T16:15:22.283Z,29.40
2022-08-31T16:17:57.708Z,29.30
2022-08-31T16:20:27.447Z,29.30
2022-08-31T16:22:55.234Z,29.20
2022-08-31T16:25:22.205Z,29.10
2022-08-31T16:27:48.940Z,29.00
2022-08-31T16:30:16.072Z,29.00
2022-08-31T16:32:42.891Z,29.00
2022-08-31T16:35:10.495Z,28.90
2022-08-31T16:37:37.747Z,28.90
2022-08-31T16:40:05.163Z,28.80
2022-08-31T16:42:32.038Z,28.80
2022-08-31T16:45:02.325Z,28.80
2022-08-31T16:47:29.891Z,28.70
2022-08-31T16:49:59.045Z,28.60
2022-08-31T16:52:30.792Z,28.50
2022-08-31T16:54:57.752Z,28.40
2022-08-31T16:57:32.486Z,28.30
2022-08-31T17:00:00.169Z,28.20
2022-08-31T17:02:27.918Z,28.10
2022-08-31T17:05:00.597Z,27.90
2022-08-31T17:07:29.080Z,27.80
2022-08-31T17:10:07.338Z,27.70
2022-08-31T17:12:37.555Z,27.60
2022-08-31T17:15:04.957Z,27.50
2022-08-31T17:17:34.794Z,27.40
2022-08-31T17:20:04.127Z,27.30
2022-08-31T17:22:33.347Z,27.20
2022-08-31T17:25:04.834Z,27.10
2022-08-31T17:27:33.954Z,26.90
2022-08-31T17:30:03.602Z,26.80
2022-08-31T17:32:30.491Z,26.60
2022-08-31T17:34:57.744Z,26.50
2022-08-31T17:37:32.509Z,26.40
2022-08-31T17:39:59.976Z,26.30
2022-08-31T17:42:28.155Z,26.20
2022-08-31T17:44:56.858Z,26.10
2022-08-31T17:47:25.139Z,26.00
2022-08-31T17:49:52.751Z,25.90
2022-08-31T17:52:21.904Z,25.80
2022-08-31T17:54:51.495Z,25.70
2022-08-31T17:57:23.459Z,25.60
2022-08-31T17:59:50.444Z,25.50
2022-08-31T18:02:33.092Z,25.40
2022-08-31T18:05:01.035Z,25.30
2022-08-31T18:07:28.091Z,25.20
2022-08-31T18:09:54.869Z,25.00
2022-08-31T18:12:22.858Z,24.90
2022-08-31T18:14:49.839Z,24.80
2022-08-31T18:17:17.413Z,24.70
2022-08-31T18:19:45.292Z,24.60
2022-08-31T18:22:14.518Z,24.50
2022-08-31T18:24:42.984Z,24.40
2022-08-31T18:27:11.504Z,24.30
2022-08-31T18:29:39.249Z,24.20
2022-08-31T18:32:07.941Z,24.10
2022-08-31T18:34:40.228Z,24.00
2022-08-31T18:37:09.309Z,23.90
2022-08-31T18:39:59.022Z,23.80
2022-08-31T18:42:46.453Z,23.70
2022-08-31T18:45:16.746Z,23.60
2022-08-31T18:47:56.910Z,23.50
2022-08-31T18:50:35.134Z,23.40
2022-08-31T18:53:11.230Z,23.30
2022-08-31T18:55:43.775Z,23.20
2022-08-31T18:58:11.142Z,23.10
2022-08-31T19:00:40.236Z,23.00
2022-08-31T19:03:07.629Z,22.90
2022-08-31T19:05:38.456Z,22.90
2022-08-31T19:08:05.430Z,22.80
2022-08-31T19:10:32.263Z,22.70
2022-08-31T19:13:01.185Z,22.60
2022-08-31T19:15:35.811Z,22.60
2022-08-31T19:18:05.370Z,22.50
2022-08-31T19:20:33.356Z,22.40
2022-08-31T19:23:00.564Z,22.40
2022-08-31T19:25:28.184Z,22.30
2022-08-31T19:27:55.849Z,22.20
2022-08-31T19:30:27.906Z,22.20
2022-08-31T19:32:56.353Z,22.10
2022-08-31T19:35:25.878Z,22.00
2022-08-31T19:37:53.904Z,22.00
2022-08-31T19:40:21.331Z,22.00
2022-08-31T19:45:45.136Z,21.90
2022-08-31T19:48:13.584Z,21.80
2022-08-31T19:50:41.864Z,21.80
2022-08-31T19:53:12.086Z,21.80
2022-08-31T19:55:50.048Z,21.80
2022-08-31T19:58:18.588Z,21.80
2022-08-31T20:00:48.294Z,21.70
2022-08-31T20:03:16.304Z,21.70
2022-08-31T20:05:43.605Z,21.70
2022-08-31T20:08:12.217Z,21.70
2022-08-31T20:10:43.506Z,21.70
2022-08-31T20:13:12.480Z,21.70
2022-08-31T20:15:44.579Z,21.70
2022-08-31T20:18:12.745Z,21.70
2022-08-31T20:20:45.523Z,21.60
2022-08-31T20:23:25.419Z,21.60
2022-08-31T20:25:53.404Z,21.60
2022-08-31T20:28:26.574Z,21.50
2022-08-31T20:31:09.849Z,21.50
2022-08-31T20:33:37.642Z,21.40
2022-08-31T20:36:29.146Z,21.40
2022-08-31T20:39:04.447Z,21.30
2022-08-31T20:41:34.934Z,21.20
2022-08-31T20:44:10.528Z,21.20
2022-08-31T20:47:03.557Z,21.10
2022-08-31T20:49:33.618Z,21.00
2022-08-31T20:52:01.928Z,20.90
2022-08-31T20:54:33.333Z,20.90
2022-08-31T20:57:03.724Z,20.80
2022-08-31T20:59:31.411Z,20.70
2022-08-31T21:02:03.397Z,20.70
2022-08-31T21:04:32.389Z,20.60
2022-08-31T21:07:02.345Z,20.60
2022-08-31T21:09:29.757Z,20.50
2022-08-31T21:12:01.338Z,20.50
2022-08-31T21:14:29.453Z,20.40
2022-08-31T21:16:56.743Z,20.40
2022-08-31T21:19:24.779Z,20.30
2022-08-31T21:21:56.158Z,20.30
2022-08-31T21:24:23.239Z,20.20
2022-08-31T21:26:59.393Z,20.20
2022-08-31T21:29:28.303Z,20.10
2022-08-31T21:32:03.445Z,20.10
2022-08-31T21:34:30.506Z,20.00
2022-08-31T21:36:57.340Z,20.00
2022-08-31T21:39:24.852Z,19.90
2022-08-31T21:41:51.935Z,19.80
2022-08-31T21:44:23.079Z,19.80
2022-08-31T21:46:51.008Z,19.70
2022-08-31T21:49:19.017Z,19.70
2022-08-31T21:51:52.582Z,19.60
2022-08-31T21:54:22.498Z,19.60
2022-08-31T21:56:55.545Z,19.50
2022-08-31T21:59:27.634Z,19.50
2022-08-31T22:02:00.222Z,19.40
2022-08-31T22:04:31.993Z,19.30
2022-08-31T22:06:59.535Z,19.30
2022-08-31T22:09:28.862Z,19.20
2022-08-31T22:11:58.292Z,19.10
2022-08-31T22:14:29.719Z,19.10
2022-08-31T22:16:58.602Z,19.00
2022-08-31T22:19:28.609Z,19.00
2022-08-31T22:22:00.489Z,18.90
2022-08-31T22:24:31.169Z,18.90
2022-08-31T22:27:00.039Z,18.80
2022-08-31T22:29:29.967Z,18.80
2022-08-31T22:31:59.768Z,18.70
2022-08-31T22:34:27.230Z,18.70
2022-08-31T22:36:55.351Z,18.70
2022-08-31T22:39:26.800Z,18.60
2022-08-31T22:41:54.868Z,18.60
2022-08-31T22:44:24.925Z,18.50
2022-08-31T22:46:53.123Z,18.50
2022-08-31T22:49:20.294Z,18.50
2022-08-31T22:51:48.439Z,18.50
2022-08-31T22:54:17.886Z,18.40
2022-08-31T22:56:45.377Z,18.40
2022-08-31T22:59:15.987Z,18.30
2022-08-31T23:01:49.965Z,18.30
2022-08-31T23:04:21.569Z,18.30
2022-08-31T23:06:50.438Z,18.20
2022-08-31T23:09:27.056Z,18.20
2022-08-31T23:11:55.605Z,18.20
2022-08-31T23:14:22.870Z,18.20
2022-08-31T23:16:55.136Z,18.10
2022-08-31T23:19:26.506Z,18.10
2022-08-31T23:21:56.880Z,18.00
2022-08-31T23:24:32.147Z,18.00
2022-08-31T23:27:04.227Z,18.00
2022-08-31T23:29:51.859Z,17.90
2022-08-31T23:32:20.685Z,17.90
2022-08-31T23:34:50.665Z,17.90
2022-08-31T23:37:18.403Z,17.80
2022-08-31T23:39:46.218Z,17.80
2022-08-31T23:42:15.310Z,17.80
2022-08-31T23:44:43.680Z,17.70
2022-08-31T23:47:13.815Z,17.70
2022-08-31T23:49:42.624Z,17.70
2022-08-31T23:52:11.900Z,17.60
2022-08-31T23:54:39.243Z,17.60
2022-08-31T23:57:31.422Z,17.60
